createdAt,value
2022-08-31T00:02:17.182Z,102221.50
2022-08-31T00:04:33.706Z,102225.03
2022-08-31T00:06:36.474Z,102227.59
2022-08-31T00:08:39.055Z,102223.25
2022-08-31T00:10:47.513Z,102233.69
2022-08-31T00:12:49.601Z,102230.19
2022-08-31T00:14:57.272Z,102231.06
2022-08-31T00:17:02.930Z,102229.31
2022-08-31T00:19:05.807Z,102226.72
2022-08-31T00:21:16.655Z,102223.16
2022-08-31T00:23:29.075Z,102221.34
2022-08-31T00:25:31.402Z,102224.84
2022-08-31T00:27:35.539Z,102224.00
2022-08-31T00:29:38.541Z,102223.91
2022-08-31T00:31:40.602Z,102224.69
2022-08-31T00:33:46.748Z,102225.56
2022-08-31T00:35:49.157Z,102221.22
2022-08-31T00:37:51.031Z,102216.00
2022-08-31T00:39:57.566Z,102216.84
2022-08-31T00:41:59.846Z,102227.28
2022-08-31T00:44:05.136Z,102223.72
2022-08-31T00:46:19.719Z,102222.81
2022-08-31T00:48:26.426Z,102226.28
2022-08-31T00:50:28.428Z,102222.75
2022-08-31T00:52:54.615Z,102220.19
2022-08-31T00:55:10.848Z,102221.88
2022-08-31T00:57:13.742Z,102223.59
2022-08-31T00:59:21.187Z,102219.19
2022-08-31T01:01:24.938Z,102220.03
2022-08-31T01:03:27.844Z,102219.06
2022-08-31T01:05:37.295Z,102222.59
2022-08-31T01:07:41.721Z,102217.31
2022-08-31T01:09:53.262Z,102219.03
2022-08-31T01:12:04.542Z,102219.81
2022-08-31T01:14:20.323Z,102221.56
2022-08-31T01:16:27.247Z,102215.47
2022-08-31T01:18:30.713Z,102220.63
2022-08-31T01:21:00.500Z,102221.44
2022-08-31T01:23:24.992Z,102224.03
2022-08-31T01:25:33.612Z,102217.03
2022-08-31T01:27:37.650Z,102223.97
2022-08-31T01:29:40.975Z,102221.31
2022-08-31T01:31:46.340Z,102219.53
2022-08-31T01:33:48.754Z,102226.41
2022-08-31T01:35:53.019Z,102222.94
2022-08-31T01:37:55.273Z,102217.63
2022-08-31T01:39:57.737Z,102219.50
2022-08-31T01:42:00.308Z,102216.91
2022-08-31T01:44:02.640Z,102222.06
2022-08-31T01:46:16.324Z,102223.78
2022-08-31T01:48:21.928Z,102223.81
2022-08-31T01:50:23.794Z,102220.22
2022-08-31T01:52:30.814Z,102220.25
2022-08-31T01:54:36.485Z,102224.56
2022-08-31T01:56:42.875Z,102217.53
2022-08-31T01:58:49.005Z,102224.47
2022-08-31T02:00:55.851Z,102221.84
2022-08-31T02:03:01.244Z,102214.03
2022-08-31T02:05:06.664Z,102216.63
2022-08-31T02:07:11.933Z,102220.94
2022-08-31T02:09:14.691Z,102217.41
2022-08-31T02:11:20.015Z,102211.25
2022-08-31T02:13:30.171Z,102203.34
2022-08-31T02:15:32.893Z,102210.28
2022-08-31T02:17:39.035Z,102205.91
2022-08-31T02:19:42.865Z,102207.69
2022-08-31T02:21:44.752Z,102217.22
2022-08-31T02:23:47.322Z,102214.66
2022-08-31T02:25:49.857Z,102219.88
2022-08-31T02:27:51.700Z,102214.63
2022-08-31T02:30:04.055Z,102220.69
2022-08-31T02:32:19.584Z,102215.34
2022-08-31T02:34:22.175Z,102216.09
2022-08-31T02:36:25.053Z,102216.97
2022-08-31T02:38:31.094Z,102216.13
2022-08-31T02:40:35.600Z,102215.25
2022-08-31T02:42:53.428Z,102215.22
2022-08-31T02:44:58.341Z,102211.75
2022-08-31T02:47:02.507Z,102211.81
2022-08-31T02:49:08.306Z,102213.56
2022-08-31T02:51:13.175Z,102212.66
2022-08-31T02:53:17.798Z,102206.63
2022-08-31T02:55:22.211Z,102210.03
2022-08-31T02:57:37.194Z,102207.38
2022-08-31T02:59:39.200Z,102203.81
2022-08-31T03:01:41.041Z,102201.31
2022-08-31T03:03:49.518Z,102197.84
2022-08-31T03:05:51.649Z,102193.47
2022-08-31T03:07:55.047Z,102190.81
2022-08-31T03:10:22.995Z,102199.53
2022-08-31T03:12:24.880Z,102197.50
2022-08-31T03:14:27.285Z,102194.09
2022-08-31T03:16:34.304Z,102195.75
2022-08-31T03:18:36.340Z,102195.78
2022-08-31T03:20:38.830Z,102193.06
2022-08-31T03:22:56.587Z,102203.59
2022-08-31T03:25:05.390Z,102199.16
2022-08-31T03:27:07.388Z,102200.91
2022-08-31T03:29:19.394Z,102198.34
2022-08-31T03:31:23.846Z,102196.56
2022-08-31T03:33:25.998Z,102194.78
2022-08-31T03:35:38.017Z,102201.81
2022-08-31T03:37:42.907Z,102188.72
2022-08-31T03:39:44.643Z,102192.16
2022-08-31T03:41:52.998Z,102186.88
2022-08-31T03:44:02.378Z,102194.75
2022-08-31T03:46:06.167Z,102194.75
2022-08-31T03:48:30.256Z,102199.06
2022-08-31T03:50:36.988Z,102196.31
2022-08-31T03:52:39.415Z,102199.91
2022-08-31T03:54:46.744Z,102196.28
2022-08-31T03:56:52.672Z,102185.94
2022-08-31T03:58:54.984Z,102189.38
2022-08-31T04:00:57.519Z,102185.88
2022-08-31T04:03:07.167Z,102194.44
2022-08-31T04:05:10.125Z,102190.94
2022-08-31T04:07:19.504Z,102190.06
2022-08-31T04:09:21.867Z,102190.09
2022-08-31T04:11:44.232Z,102185.66
2022-08-31T04:13:49.688Z,102188.34
2022-08-31T04:15:51.962Z,102184.91
2022-08-31T04:17:54.988Z,102188.31
2022-08-31T04:20:11.322Z,102183.94
2022-08-31T04:22:16.802Z,102185.69
2022-08-31T04:24:19.200Z,102179.59
2022-08-31T04:26:26.414Z,102194.41
2022-08-31T04:28:41.659Z,102193.47
2022-08-31T04:30:43.648Z,102189.06
2022-08-31T04:32:53.604Z,102192.47
2022-08-31T04:35:09.751Z,102182.09
2022-08-31T04:37:14.843Z,102196.69
2022-08-31T04:39:16.883Z,102186.34
2022-08-31T04:41:21.526Z,102188.97
2022-08-31T04:43:24.074Z,102189.78
2022-08-31T04:45:26.275Z,102185.50
2022-08-31T04:47:38.680Z,102189.84
2022-08-31T04:49:40.606Z,102189.78
2022-08-31T04:51:42.889Z,102193.34
2022-08-31T04:53:48.956Z,102188.97
2022-08-31T04:55:50.854Z,102195.84
2022-08-31T04:57:56.559Z,102192.31
2022-08-31T05:00:01.889Z,102199.25
2022-08-31T05:02:04.249Z,102195.06
2022-08-31T05:04:23.394Z,102195.91
2022-08-31T05:06:33.526Z,102200.28
2022-08-31T05:08:35.541Z,102202.88
2022-08-31T05:10:41.935Z,102196.84
2022-08-31T05:12:46.539Z,102202.78
2022-08-31T05:14:48.328Z,102205.59
2022-08-31T05:16:55.028Z,102203.03
2022-08-31T05:19:00.494Z,102204.75
2022-08-31T05:21:20.738Z,102200.47
2022-08-31T05:23:22.530Z,102198.78
2022-08-31T05:25:30.574Z,102204.06
2022-08-31T05:27:33.204Z,102199.75
2022-08-31T05:29:56.854Z,102197.03
2022-08-31T05:32:00.594Z,102196.28
2022-08-31T05:34:03.708Z,102197.19
2022-08-31T05:36:06.210Z,102200.66
2022-08-31T05:38:10.053Z,102195.44
2022-08-31T05:40:12.485Z,102191.97
2022-08-31T05:42:15.627Z,102200.72
2022-08-31T05:44:22.813Z,102192.13
2022-08-31T05:46:30.410Z,102183.38
2022-08-31T05:48:34.194Z,102187.81
2022-08-31T05:50:38.014Z,102189.56
2022-08-31T05:52:40.270Z,102197.34
2022-08-31T05:54:42.099Z,102196.47
2022-08-31T05:56:47.719Z,102195.66
2022-08-31T05:58:50.833Z,102191.31
2022-08-31T06:00:52.515Z,102193.09
2022-08-31T06:02:59.745Z,102192.25
2022-08-31T06:05:01.693Z,102195.69
2022-08-31T06:07:05.653Z,102187.00
2022-08-31T06:09:12.811Z,102189.56
2022-08-31T06:11:19.438Z,102196.53
2022-08-31T06:13:21.154Z,102185.31
2022-08-31T06:15:25.962Z,102194.91
2022-08-31T06:17:29.239Z,102194.16
2022-08-31T06:19:32.160Z,102191.56
2022-08-31T06:21:38.795Z,102185.50
2022-08-31T06:23:53.558Z,102200.28
2022-08-31T06:26:02.636Z,102195.09
2022-08-31T06:28:07.727Z,102189.09
2022-08-31T06:30:11.161Z,102187.28
2022-08-31T06:32:14.705Z,102194.22
2022-08-31T06:34:19.157Z,102183.91
2022-08-31T06:36:27.170Z,102189.88
2022-08-31T06:38:29.945Z,102197.72
2022-08-31T06:40:35.250Z,102196.06
2022-08-31T06:42:37.649Z,102196.06
2022-08-31T06:44:39.355Z,102203.00
2022-08-31T06:46:47.401Z,102198.72
2022-08-31T06:48:55.994Z,102204.72
2022-08-31T06:50:58.471Z,102204.78
2022-08-31T06:53:00.852Z,102208.25
2022-08-31T06:55:04.681Z,102213.53
2022-08-31T06:57:06.642Z,102206.63
2022-08-31T06:59:12.907Z,102207.56
2022-08-31T07:01:20.613Z,102197.13
2022-08-31T07:03:38.910Z,102206.81
2022-08-31T07:05:43.507Z,102202.50
2022-08-31T07:07:49.319Z,102211.28
2022-08-31T07:09:51.244Z,102207.00
2022-08-31T07:11:58.248Z,102212.31
2022-08-31T07:14:04.659Z,102204.47
2022-08-31T07:16:09.910Z,102207.09
2022-08-31T07:18:12.190Z,102203.75
2022-08-31T07:20:16.303Z,102207.28
2022-08-31T07:22:18.485Z,102207.41
2022-08-31T07:24:27.740Z,102206.59
2022-08-31T07:26:36.503Z,102203.06
2022-08-31T07:28:39.647Z,102195.34
2022-08-31T07:30:44.977Z,102204.06
2022-08-31T07:33:00.783Z,102190.16
2022-08-31T07:35:02.870Z,102200.69
2022-08-31T07:37:32.955Z,102198.06
2022-08-31T07:39:57.929Z,102189.50
2022-08-31T07:42:06.222Z,102202.53
2022-08-31T07:44:13.124Z,102194.72
2022-08-31T07:46:17.271Z,102186.09
2022-08-31T07:48:19.625Z,102195.72
2022-08-31T07:50:22.933Z,102193.13
2022-08-31T07:52:30.225Z,102196.66
2022-08-31T07:54:32.577Z,102191.50
2022-08-31T07:56:36.361Z,102196.75
2022-08-31T07:58:40.000Z,102191.56
2022-08-31T08:00:43.277Z,102187.25
2022-08-31T08:02:56.251Z,102191.63
2022-08-31T08:05:01.340Z,102196.94
2022-08-31T08:07:06.106Z,102194.34
2022-08-31T08:09:23.984Z,102196.09
2022-08-31T08:11:29.980Z,102196.94
2022-08-31T08:13:33.802Z,102192.63
2022-08-31T08:15:37.375Z,102197.72
2022-08-31T08:17:46.629Z,102197.84
2022-08-31T08:19:52.654Z,102188.34
2022-08-31T08:21:56.758Z,102197.91
2022-08-31T08:24:02.486Z,102189.22
2022-08-31T08:26:22.165Z,102201.44
2022-08-31T08:28:39.043Z,102209.31
2022-08-31T08:30:47.790Z,102202.38
2022-08-31T08:33:02.701Z,102207.56
2022-08-31T08:35:05.466Z,102206.75
2022-08-31T08:37:11.000Z,102198.13
2022-08-31T08:39:13.885Z,102198.16
2022-08-31T08:41:19.472Z,102216.44
2022-08-31T08:43:36.797Z,102206.91
2022-08-31T08:45:40.846Z,102202.56
2022-08-31T08:47:43.210Z,102202.63
2022-08-31T08:49:54.852Z,102192.19
2022-08-31T08:52:15.270Z,102205.25
2022-08-31T08:54:32.447Z,102204.50
2022-08-31T08:56:34.433Z,102200.22
2022-08-31T08:58:44.443Z,102202.81
2022-08-31T09:00:54.767Z,102206.34
2022-08-31T09:03:04.043Z,102203.75
2022-08-31T09:05:35.273Z,102196.81
2022-08-31T09:07:50.910Z,102201.16
2022-08-31T09:10:04.967Z,102195.09
2022-08-31T09:12:24.853Z,102189.91
2022-08-31T09:14:35.112Z,102196.03
2022-08-31T09:16:45.995Z,102191.66
2022-08-31T09:18:58.953Z,102187.31
2022-08-31T09:21:12.860Z,102194.34
2022-08-31T09:23:18.294Z,102184.75
2022-08-31T09:25:33.399Z,102179.53
2022-08-31T09:27:48.753Z,102182.13
2022-08-31T09:30:00.096Z,102190.88
2022-08-31T09:32:08.267Z,102193.50
2022-08-31T09:34:25.715Z,102194.34
2022-08-31T09:36:47.112Z,102195.22
2022-08-31T09:38:54.543Z,102190.00
2022-08-31T09:40:56.834Z,102190.00
2022-08-31T09:43:13.825Z,102198.72
2022-08-31T09:45:33.140Z,102185.63
2022-08-31T09:47:52.673Z,102196.09
2022-08-31T09:49:56.294Z,102191.72
2022-08-31T09:52:56.747Z,102188.22
2022-08-31T09:55:16.114Z,102199.53
2022-08-31T09:57:54.627Z,102191.69
2022-08-31T09:59:58.604Z,102185.56
2022-08-31T10:02:02.587Z,102192.53
2022-08-31T10:04:28.617Z,102183.78
2022-08-31T10:06:51.035Z,102175.00
2022-08-31T10:09:00.194Z,102193.34
2022-08-31T10:11:21.678Z,102192.41
2022-08-31T10:13:42.305Z,102181.91
2022-08-31T10:16:07.286Z,102180.16
2022-08-31T10:18:15.240Z,102178.38
2022-08-31T10:20:30.339Z,102182.69
2022-08-31T10:22:42.232Z,102187.91
2022-08-31T10:24:48.434Z,102180.84
2022-08-31T10:27:14.908Z,102172.91
2022-08-31T10:29:44.615Z,102160.56
2022-08-31T10:31:53.311Z,102159.63
2022-08-31T10:34:22.185Z,102163.03
2022-08-31T10:36:31.739Z,102161.22
2022-08-31T10:39:08.800Z,102147.97
2022-08-31T10:41:41.644Z,102150.56
2022-08-31T10:44:05.618Z,102140.88
2022-08-31T10:46:07.697Z,102147.03
2022-08-31T10:48:13.389Z,102130.28
2022-08-31T10:50:41.289Z,102132.09
2022-08-31T10:53:07.204Z,102129.47
2022-08-31T10:55:18.200Z,102132.16
2022-08-31T10:57:21.614Z,102129.50
2022-08-31T10:59:46.022Z,102126.06
2022-08-31T11:01:58.623Z,102121.03
2022-08-31T11:04:35.616Z,102127.94
2022-08-31T11:07:05.786Z,102124.47
2022-08-31T11:09:41.276Z,102126.25
2022-08-31T11:11:58.640Z,102129.75
2022-08-31T11:14:40.535Z,102125.41
2022-08-31T11:16:56.503Z,102103.44
2022-08-31T11:19:38.608Z,102105.81
2022-08-31T11:21:46.776Z,102106.44
2022-08-31T11:23:58.980Z,102100.09
2022-08-31T11:26:20.694Z,102098.06
2022-08-31T11:28:36.680Z,102104.16
2022-08-31T11:30:50.520Z,102097.03
2022-08-31T11:33:01.069Z,102093.63
2022-08-31T11:35:11.085Z,102079.66
2022-08-31T11:37:34.052Z,102079.09
2022-08-31T11:39:38.653Z,102084.31
2022-08-31T11:41:50.766Z,102082.69
2022-08-31T11:43:54.114Z,102082.66
2022-08-31T11:45:56.589Z,102082.59
2022-08-31T11:48:04.207Z,102071.84
2022-08-31T11:50:27.099Z,102071.75
2022-08-31T11:52:49.990Z,102078.84
2022-08-31T11:54:52.674Z,102067.69
2022-08-31T11:56:57.298Z,102077.31
2022-08-31T11:59:19.686Z,102070.41
2022-08-31T12:01:33.917Z,102069.50
2022-08-31T12:03:53.417Z,102078.38
2022-08-31T12:06:01.099Z,102082.44
2022-08-31T12:08:04.307Z,102074.44
2022-08-31T12:10:30.173Z,102072.69
2022-08-31T12:13:13.205Z,102071.66
2022-08-31T12:15:34.243Z,102077.78
2022-08-31T12:18:19.202Z,102083.91
2022-08-31T12:20:30.231Z,102082.31
2022-08-31T12:23:03.985Z,102085.81
2022-08-31T12:25:35.536Z,102092.00
2022-08-31T12:28:17.193Z,102090.44
2022-08-31T12:30:26.192Z,102092.16
2022-08-31T12:32:41.405Z,102089.66
2022-08-31T12:34:56.449Z,102089.72
2022-08-31T12:36:59.910Z,102088.94
2022-08-31T12:39:23.075Z,102087.91
2022-08-31T12:41:30.325Z,102086.19
2022-08-31T12:43:47.047Z,102082.69
2022-08-31T12:46:09.749Z,102089.63
2022-08-31T12:48:23.228Z,102075.69
2022-08-31T12:51:04.238Z,102080.88
2022-08-31T12:53:31.716Z,102082.72
2022-08-31T12:56:04.188Z,102078.28
2022-08-31T12:58:44.733Z,102076.59
2022-08-31T13:00:46.606Z,102077.41
2022-08-31T13:03:02.633Z,102069.50
2022-08-31T13:05:25.590Z,102078.28
2022-08-31T13:07:35.815Z,102075.63
2022-08-31T13:09:38.108Z,102072.94
2022-08-31T13:11:43.346Z,102078.31
2022-08-31T13:13:45.911Z,102075.56
2022-08-31T13:15:49.284Z,102081.72
2022-08-31T13:17:58.346Z,102070.31
2022-08-31T13:20:00.951Z,102071.25
2022-08-31T13:22:12.205Z,102075.59
2022-08-31T13:24:15.318Z,102070.41
2022-08-31T13:26:25.834Z,102072.19
2022-08-31T13:28:30.535Z,102069.56
2022-08-31T13:30:41.361Z,102064.16
2022-08-31T13:33:13.925Z,102065.69
2022-08-31T13:35:22.173Z,102063.69
2022-08-31T13:37:35.978Z,102066.91
2022-08-31T13:39:46.976Z,102062.34
2022-08-31T13:42:13.980Z,102063.97
2022-08-31T13:44:22.574Z,102066.56
2022-08-31T13:46:42.013Z,102072.69
2022-08-31T13:49:02.334Z,102060.47
2022-08-31T13:51:16.475Z,102059.59
2022-08-31T13:53:39.896Z,102053.28
2022-08-31T13:55:49.767Z,102057.69
2022-08-31T13:58:08.073Z,102057.44
2022-08-31T14:00:43.102Z,102054.75
2022-08-31T14:02:53.421Z,102053.59
2022-08-31T14:05:05.961Z,102057.78
2022-08-31T14:07:08.178Z,102055.94
2022-08-31T14:09:17.191Z,102053.38
2022-08-31T14:11:22.056Z,102042.84
2022-08-31T14:13:27.885Z,102052.38
2022-08-31T14:15:41.183Z,102042.91
2022-08-31T14:20:36.054Z,102038.72
2022-08-31T14:22:45.869Z,102044.06
2022-08-31T14:24:47.579Z,102039.84
2022-08-31T14:26:51.355Z,102043.34
2022-08-31T14:29:00.555Z,102038.25
2022-08-31T14:31:12.311Z,102043.69
2022-08-31T14:33:17.693Z,102038.34
2022-08-31T14:35:22.738Z,102026.22
2022-08-31T14:37:28.813Z,102028.09
2022-08-31T14:39:34.515Z,102022.72
2022-08-31T14:41:44.239Z,102027.16
2022-08-31T14:43:47.392Z,102023.34
2022-08-31T14:45:51.553Z,102016.81
2022-08-31T14:47:54.355Z,102024.34
2022-08-31T14:50:07.002Z,102016.25
2022-08-31T14:52:10.300Z,102009.50
2022-08-31T14:54:13.361Z,102016.00
2022-08-31T14:56:20.616Z,102010.63
2022-08-31T14:58:24.599Z,102015.38
2022-08-31T15:00:32.465Z,102012.94
2022-08-31T15:02:34.785Z,102009.75
2022-08-31T15:04:45.693Z,102010.88
2022-08-31T15:06:55.005Z,102010.06
2022-08-31T15:08:56.781Z,102004.69
2022-08-31T15:10:59.207Z,102010.06
2022-08-31T15:13:12.631Z,102006.25
2022-08-31T15:15:18.603Z,102012.88
2022-08-31T15:17:27.063Z,102020.13
2022-08-31T15:19:31.343Z,102012.13
2022-08-31T15:21:33.047Z,102009.69
2022-08-31T15:23:47.315Z,102015.44
2022-08-31T15:25:49.125Z,102017.59
2022-08-31T15:27:51.837Z,102017.59
2022-08-31T15:29:57.969Z,102015.06
2022-08-31T15:32:01.671Z,102007.53
2022-08-31T15:34:08.271Z,102017.31
2022-08-31T15:36:19.002Z,102001.50
2022-08-31T15:38:27.138Z,101998.03
2022-08-31T15:40:38.643Z,101989.94
2022-08-31T15:42:42.978Z,101985.22
2022-08-31T15:45:01.451Z,101995.69
2022-08-31T15:47:22.237Z,101993.97
2022-08-31T15:49:27.797Z,101986.81
2022-08-31T15:51:36.877Z,101999.78
2022-08-31T15:53:43.205Z,101997.00
2022-08-31T15:55:45.825Z,101993.66
2022-08-31T15:57:48.614Z,101990.75
2022-08-31T15:59:50.541Z,101989.16
2022-08-31T16:01:54.054Z,101982.78
2022-08-31T16:04:02.874Z,101990.34
2022-08-31T16:06:05.830Z,101978.06
2022-08-31T16:08:12.230Z,101981.56
2022-08-31T16:10:20.433Z,101977.97
2022-08-31T16:12:23.020Z,101979.25
2022-08-31T16:14:26.602Z,101979.31
2022-08-31T16:16:36.592Z,101981.66
2022-08-31T16:18:38.707Z,101972.34
2022-08-31T16:20:44.185Z,101969.97
2022-08-31T16:22:59.302Z,101976.34
2022-08-31T16:25:03.122Z,101957.94
2022-08-31T16:27:08.923Z,101975.75
2022-08-31T16:29:14.881Z,101967.66
2022-08-31T16:31:17.014Z,101960.69
2022-08-31T16:33:20.362Z,101953.72
2022-08-31T16:35:23.279Z,101955.25
2022-08-31T16:37:25.808Z,101959.34
2022-08-31T16:39:28.457Z,101955.97
2022-08-31T16:41:36.457Z,101958.59
2022-08-31T16:43:39.675Z,101948.88
2022-08-31T16:45:44.089Z,101949.00
2022-08-31T16:47:47.715Z,101946.31
2022-08-31T16:49:50.125Z,101952.09
2022-08-31T16:51:55.680Z,101950.09
2022-08-31T16:54:03.855Z,101936.47
2022-08-31T16:56:06.316Z,101942.41
2022-08-31T16:58:08.687Z,101948.63
2022-08-31T17:00:12.439Z,101950.06
2022-08-31T17:02:16.132Z,101957.16
2022-08-31T17:04:41.492Z,101946.94
2022-08-31T17:06:46.154Z,101947.97
2022-08-31T17:08:48.041Z,101947.06
2022-08-31T17:10:51.648Z,101950.25
2022-08-31T17:13:01.290Z,101946.06
2022-08-31T17:15:04.377Z,101952.34
2022-08-31T17:17:07.710Z,101956.03
2022-08-31T17:19:16.454Z,101945.97
2022-08-31T17:21:20.305Z,101939.16
2022-08-31T17:23:28.562Z,101950.59
2022-08-31T17:25:36.333Z,101948.03
2022-08-31T17:27:38.569Z,101942.97
2022-08-31T17:29:44.976Z,101949.97
2022-08-31T17:31:52.612Z,101937.81
2022-08-31T17:33:55.492Z,101946.69
2022-08-31T17:36:00.000Z,101940.78
2022-08-31T17:38:03.824Z,101949.72
2022-08-31T17:40:08.221Z,101951.66
2022-08-31T17:42:15.593Z,101949.03
2022-08-31T17:44:21.771Z,101954.34
2022-08-31T17:46:24.032Z,101949.97
2022-08-31T17:48:26.268Z,101945.88
2022-08-31T17:50:35.551Z,101945.09
2022-08-31T17:52:37.380Z,101948.63
2022-08-31T17:54:43.514Z,101945.09
2022-08-31T17:56:54.456Z,101963.59
2022-08-31T17:58:57.932Z,101950.50
2022-08-31T18:01:06.054Z,101957.66
2022-08-31T18:03:08.264Z,101954.28
2022-08-31T18:05:12.040Z,101952.53
2022-08-31T18:07:15.186Z,101959.69
2022-08-31T18:09:22.721Z,101957.88
2022-08-31T18:11:25.111Z,101954.50
2022-08-31T18:13:27.314Z,101957.97
2022-08-31T18:15:29.594Z,101965.19
2022-08-31T18:17:31.695Z,101963.44
2022-08-31T18:19:38.090Z,101975.88
2022-08-31T18:21:43.055Z,101975.03
2022-08-31T18:23:48.599Z,101979.31
2022-08-31T18:25:58.198Z,101983.88
2022-08-31T18:28:05.274Z,101984.69
2022-08-31T18:30:09.104Z,101987.47
2022-08-31T18:32:16.388Z,101986.56
2022-08-31T18:34:22.753Z,101994.44
2022-08-31T18:36:26.192Z,101992.75
2022-08-31T18:38:32.267Z,101993.75
2022-08-31T18:40:59.530Z,101995.59
2022-08-31T18:43:37.958Z,101988.63
2022-08-31T18:45:47.136Z,102001.78
2022-08-31T18:50:22.041Z,102003.56
2022-08-31T18:52:25.260Z,101994.81
2022-08-31T18:54:28.983Z,102005.34
2022-08-31T18:56:32.861Z,102000.97
2022-08-31T18:58:35.954Z,102003.66
2022-08-31T19:00:45.211Z,102008.91
2022-08-31T19:02:57.344Z,102006.31
2022-08-31T19:05:01.145Z,102008.88
2022-08-31T19:09:28.472Z,102012.47
2022-08-31T19:11:31.143Z,102021.25
2022-08-31T19:13:36.497Z,102019.56
2022-08-31T19:15:41.428Z,102020.44
2022-08-31T19:17:49.309Z,102019.56
2022-08-31T19:19:51.578Z,102018.69
2022-08-31T19:22:06.911Z,102025.72
2022-08-31T19:24:13.727Z,102024.00
2022-08-31T19:26:28.183Z,102026.66
2022-08-31T19:28:45.402Z,102026.69
2022-08-31T19:30:51.606Z,102032.81
2022-08-31T19:32:57.006Z,102022.34
2022-08-31T19:35:17.728Z,102026.69
2022-08-31T19:37:24.158Z,102031.94
2022-08-31T19:39:32.062Z,102026.75
2022-08-31T19:41:51.702Z,102039.84
2022-08-31T19:44:08.230Z,102043.34
2022-08-31T19:46:24.279Z,102037.25
2022-08-31T19:48:27.022Z,102032.91
2022-08-31T19:50:44.739Z,102045.97
2022-08-31T19:52:57.187Z,102038.16
2022-08-31T19:55:09.062Z,102037.28
2022-08-31T19:57:16.844Z,102039.03
2022-08-31T19:59:24.303Z,102038.16
2022-08-31T20:01:33.703Z,102039.06
2022-08-31T20:03:38.823Z,102042.53
2022-08-31T20:05:43.882Z,102045.16
2022-08-31T20:07:45.851Z,102031.19
2022-08-31T20:09:57.591Z,102041.69
2022-08-31T20:12:02.976Z,102038.22
2022-08-31T20:14:05.836Z,102038.19
2022-08-31T20:16:12.984Z,102039.06
2022-08-31T20:18:15.393Z,102035.56
2022-08-31T20:20:17.416Z,102039.91
2022-08-31T20:22:29.923Z,102042.53
2022-08-31T20:24:33.611Z,102041.69
2022-08-31T20:26:47.191Z,102044.31
2022-08-31T20:29:04.571Z,102034.69
2022-08-31T20:31:13.225Z,102038.19
2022-08-31T20:33:15.988Z,102041.69
2022-08-31T20:35:19.365Z,102040.81
2022-08-31T20:37:26.118Z,102039.94
2022-08-31T20:39:30.395Z,102041.66
2022-08-31T20:41:54.488Z,102047.78
2022-08-31T20:44:13.247Z,102043.44
2022-08-31T20:46:36.276Z,102041.66
2022-08-31T20:49:12.494Z,102049.50
2022-08-31T20:51:26.677Z,102038.16
2022-08-31T20:53:43.343Z,102039.91
2022-08-31T20:55:55.007Z,102043.38
2022-08-31T20:57:56.771Z,102042.50
2022-08-31T21:00:14.551Z,102032.03
2022-08-31T21:02:27.105Z,102029.44
2022-08-31T21:04:30.847Z,102025.97
2022-08-31T21:06:37.965Z,102038.16
2022-08-31T21:08:43.030Z,102031.16
2022-08-31T21:10:45.081Z,102035.50
2022-08-31T21:13:04.322Z,102038.16
2022-08-31T21:15:10.370Z,102030.28
2022-08-31T21:17:14.524Z,102032.91
2022-08-31T21:19:38.162Z,102039.00
2022-08-31T21:21:43.759Z,102041.63
2022-08-31T21:23:48.776Z,102040.75
2022-08-31T21:25:51.417Z,102039.00
2022-08-31T21:28:04.383Z,102039.88
2022-08-31T21:30:09.241Z,102047.63
2022-08-31T21:32:15.431Z,102045.00
2022-08-31T21:34:31.676Z,102046.75
2022-08-31T21:36:36.015Z,102045.00
2022-08-31T21:38:38.946Z,102039.78
2022-08-31T21:41:19.657Z,102038.03
2022-08-31T21:43:23.890Z,102046.75
2022-08-31T21:45:25.758Z,102043.25
2022-08-31T21:47:31.919Z,102045.00
2022-08-31T21:49:35.682Z,102040.66
2022-08-31T21:51:50.219Z,102044.13
2022-08-31T21:54:13.184Z,102046.75
2022-08-31T21:56:21.615Z,102043.22
2022-08-31T21:58:24.329Z,102047.53
2022-08-31T22:00:29.609Z,102048.41
2022-08-31T22:02:32.421Z,102044.09
2022-08-31T22:04:36.465Z,102040.56
2022-08-31T22:06:45.674Z,102036.22
2022-08-31T22:08:56.364Z,102042.31
2022-08-31T22:11:00.256Z,102037.91
2022-08-31T22:13:05.798Z,102033.56
2022-08-31T22:15:11.855Z,102041.34
2022-08-31T22:17:15.066Z,102045.75
2022-08-31T22:19:25.755Z,102044.81
2022-08-31T22:21:30.615Z,102053.53
2022-08-31T22:23:32.777Z,102052.63
2022-08-31T22:25:36.040Z,102050.03
2022-08-31T22:27:43.648Z,102050.00
2022-08-31T22:29:46.144Z,102048.25
2022-08-31T22:31:53.054Z,102039.53
2022-08-31T22:33:58.726Z,102045.63
2022-08-31T22:36:00.717Z,102041.28
2022-08-31T22:38:11.036Z,102040.44
2022-08-31T22:40:22.842Z,102033.47
2022-08-31T22:42:25.637Z,102038.69
2022-08-31T22:44:29.875Z,102042.13
2022-08-31T22:46:32.343Z,102034.28
2022-08-31T22:48:34.334Z,102033.41
2022-08-31T22:50:39.794Z,102033.41
2022-08-31T22:52:50.857Z,102027.31
2022-08-31T22:54:52.688Z,102024.72
2022-08-31T22:56:57.944Z,102030.78
2022-08-31T22:59:28.369Z,102022.09
2022-08-31T23:01:38.937Z,102027.31
2022-08-31T23:03:43.067Z,102025.56
2022-08-31T23:05:59.069Z,102024.69
2022-08-31T23:08:02.086Z,102016.00
2022-08-31T23:10:04.597Z,102022.09
2022-08-31T23:12:23.805Z,102011.59
2022-08-31T23:14:27.662Z,102013.31
2022-08-31T23:16:37.282Z,102010.69
2022-08-31T23:18:57.543Z,102003.72
2022-08-31T23:21:04.373Z,102001.06
2022-08-31T23:23:07.043Z,101999.38
2022-08-31T23:25:17.281Z,101995.91
2022-08-31T23:27:22.179Z,101995.91
2022-08-31T23:29:28.025Z,101995.03
2022-08-31T23:31:35.958Z,101990.63
2022-08-31T23:33:44.559Z,101990.69
2022-08-31T23:36:00.134Z,101990.69
2022-08-31T23:38:26.161Z,101991.53
2022-08-31T23:41:21.961Z,101977.59
2022-08-31T23:43:31.275Z,101981.06
2022-08-31T23:46:03.604Z,101980.19
2022-08-31T23:48:27.422Z,101980.13
2022-08-31T23:50:49.758Z,101974.03
2022-08-31T23:53:09.895Z,101971.41
2022-08-31T23:58:06.018Z,101963.59
